Time;durP1;ratioP1;P1;durP2;ratioP2;P2;SDS_P1;SDS_P2;PMS_P1;PMS_P2;Temp;Humidity;BMP_temperature;BMP_pressure;BME280_temperature;BME280_humidity;BME280_pressure;Samples;Min_cycle;Max_cycle;Signal;HPM_P1;HPM_P2
2024/04/08 00:00:37;;;;;;;;;2.00;2.00;;;;;;;;5449628;26;8783;-85
2024/04/08 00:03:07;;;;;;;;;3.50;2.75;;;;;;;;5454631;26;8836;-84
2024/04/08 00:05:37;;;;;;;;;1.75;1.75;;;;;;;;5451934;26;8824;-85
2024/04/08 00:08:07;;;;;;;;;2.50;2.50;;;;;;;;5451433;26;8862;-84
2024/04/08 00:10:35;;;;;;;;;4.50;3.00;;;;;;;;5451208;26;8862;-85
2024/04/08 00:13:05;;;;;;;;;2.00;2.00;;;;;;;;5451675;26;8828;-85
2024/04/08 00:15:34;;;;;;;;;1.50;1.50;;;;;;;;5451565;26;8828;-82
2024/04/08 00:18:03;;;;;;;;;1.00;1.00;;;;;;;;5451462;26;8809;-85
2024/04/08 00:20:29;;;;;;;;;2.25;2.25;;;;;;;;5451931;26;8824;-84
2024/04/08 00:23:05;;;;;;;;;2.00;2.00;;;;;;;;5473393;26;8933;-86
2024/04/08 00:25:34;;;;;;;;;2.00;2.00;;;;;;;;5471977;26;8828;-84
2024/04/08 00:28:03;;;;;;;;;1.75;1.75;;;;;;;;5462213;26;8813;-86
2024/04/08 00:30:29;;;;;;;;;2.25;2.25;;;;;;;;5486015;26;8729;-86
2024/04/08 00:32:58;;;;;;;;;3.00;3.00;;;;;;;;5485108;26;8824;-85
2024/04/08 00:35:25;;;;;;;;;2.00;2.00;;;;;;;;5465372;26;8890;-84
2024/04/08 00:37:53;;;;;;;;;2.00;2.00;;;;;;;;5486678;26;9534;-82
2024/04/08 00:40:22;;;;;;;;;1.50;1.00;;;;;;;;5487796;26;8832;-84
2024/04/08 00:42:53;;;;;;;;;0.50;0.50;;;;;;;;5430874;26;9586;-83
2024/04/08 00:45:22;;;;;;;;;2.00;2.00;;;;;;;;5453130;26;8870;-83
2024/04/08 00:47:51;;;;;;;;;2.00;2.00;;;;;;;;5454608;26;8828;-84
2024/04/08 00:50:17;;;;;;;;;1.00;1.00;;;;;;;;5454073;26;8840;-85
2024/04/08 00:52:46;;;;;;;;;1.00;1.00;;;;;;;;5470354;26;8824;-86
2024/04/08 00:55:13;;;;;;;;;2.00;2.00;;;;;;;;5453779;26;10077;-87
2024/04/08 00:57:45;;;;;;;;;0.75;0.75;;;;;;;;5486310;26;8832;-86
2024/04/08 01:00:12;;;;;;;;;2.50;1.00;;;;;;;;5461252;26;8840;-87
2024/04/08 01:02:41;;;;;;;;;2.00;2.00;;;;;;;;5485711;26;9608;-86
2024/04/08 01:05:13;;;;;;;;;1.00;1.00;;;;;;;;5479267;26;8843;-85
2024/04/08 01:07:43;;;;;;;;;2.50;2.00;;;;;;;;5484842;26;8866;-86
2024/04/08 01:10:10;;;;;;;;;1.25;1.25;;;;;;;;5472576;26;8844;-85
2024/04/08 01:12:39;;;;;;;;;1.50;1.50;;;;;;;;5451572;26;8848;-86
2024/04/08 01:15:08;;;;;;;;;5.00;5.00;;;;;;;;5449948;26;8805;-86
2024/04/08 01:17:37;;;;;;;;;3.00;3.00;;;;;;;;5474225;26;8866;-86
2024/04/08 01:20:04;;;;;;;;;3.00;3.00;;;;;;;;5484736;26;8863;-86
2024/04/08 01:22:37;;;;;;;;;2.00;2.00;;;;;;;;5485771;26;8832;-86
2024/04/08 01:25:06;;;;;;;;;2.25;2.25;;;;;;;;5464099;26;9644;-85
2024/04/08 01:27:35;;;;;;;;;3.00;3.00;;;;;;;;5480663;26;8827;-85
2024/04/08 01:30:01;;;;;;;;;3.25;2.50;;;;;;;;5484383;26;8878;-84
2024/04/08 01:32:31;;;;;;;;;2.25;1.75;;;;;;;;5481301;26;8820;-85
2024/04/08 01:34:57;;;;;;;;;3.75;2.75;;;;;;;;5469916;26;8879;-86
2024/04/08 01:37:26;;;;;;;;;2.00;2.00;;;;;;;;5472119;26;8867;-86
2024/04/08 01:39:52;;;;;;;;;2.25;2.25;;;;;;;;5463868;26;8847;-87
2024/04/08 01:42:24;;;;;;;;;2.00;2.00;;;;;;;;5458512;26;8820;-86
2024/04/08 01:44:50;;;;;;;;;2.00;2.00;;;;;;;;5471048;26;8901;-85
2024/04/08 01:47:19;;;;;;;;;1.75;1.75;;;;;;;;5475799;26;8851;-86
2024/04/08 01:49:45;;;;;;;;;2.00;2.00;;;;;;;;5450955;26;8852;-86
2024/04/08 01:52:14;;;;;;;;;5.75;2.00;;;;;;;;5470455;26;8813;-85
2024/04/08 01:54:40;;;;;;;;;2.25;2.25;;;;;;;;5450545;26;8866;-85
2024/04/08 01:57:09;;;;;;;;;1.50;1.50;;;;;;;;5476909;26;8951;-85
2024/04/08 01:59:38;;;;;;;;;2.00;2.00;;;;;;;;5463105;26;8839;-85
2024/04/08 02:02:07;;;;;;;;;3.00;3.00;;;;;;;;5471513;26;8777;-84
2024/04/08 02:04:33;;;;;;;;;4.75;2.00;;;;;;;;5467778;26;8819;-85
2024/04/08 02:07:02;;;;;;;;;3.00;3.00;;;;;;;;5470379;26;8832;-84
2024/04/08 02:09:29;;;;;;;;;2.00;2.00;;;;;;;;5450447;26;8840;-83
2024/04/08 02:11:58;;;;;;;;;3.00;3.00;;;;;;;;5470299;26;8932;-85
2024/04/08 02:14:24;;;;;;;;;2.00;2.00;;;;;;;;5449704;26;8843;-84
2024/04/08 02:16:55;;;;;;;;;4.00;2.25;;;;;;;;5451936;26;8920;-84
2024/04/08 02:19:24;;;;;;;;;3.00;2.00;;;;;;;;5457516;26;8844;-84
2024/04/08 02:21:53;;;;;;;;;1.75;1.75;;;;;;;;5461122;26;8831;-84
2024/04/08 02:24:20;;;;;;;;;1.00;1.00;;;;;;;;5454910;26;8839;-83
2024/04/08 02:26:49;;;;;;;;;2.50;2.50;;;;;;;;5449791;26;8903;-83
2024/04/08 02:29:15;;;;;;;;;1.75;1.75;;;;;;;;5459796;26;8820;-84
2024/04/08 02:31:44;;;;;;;;;1.75;1.75;;;;;;;;5471839;26;8796;-85
2024/04/08 02:34:13;;;;;;;;;3.50;1.25;;;;;;;;5476467;26;8824;-84
2024/04/08 02:36:44;;;;;;;;;1.75;1.00;;;;;;;;5469375;26;8839;-84
2024/04/08 02:39:10;;;;;;;;;3.50;2.00;;;;;;;;5453974;26;8828;-85
2024/04/08 02:41:39;;;;;;;;;2.50;2.50;;;;;;;;5467725;26;9665;-86
2024/04/08 02:44:05;;;;;;;;;0.25;0.25;;;;;;;;5475137;26;8940;-86
2024/04/08 02:46:34;;;;;;;;;1.25;1.25;;;;;;;;5466857;26;8851;-85
2024/04/08 02:49:03;;;;;;;;;1.75;1.75;;;;;;;;5460909;26;8828;-85
2024/04/08 02:51:35;;;;;;;;;2.75;2.00;;;;;;;;5471851;26;8859;-85
2024/04/08 02:54:04;;;;;;;;;2.50;1.75;;;;;;;;5469760;26;8823;-85
2024/04/08 02:56:37;;;;;;;;;4.00;3.00;;;;;;;;5450446;26;8885;-85
2024/04/08 02:59:03;;;;;;;;;1.50;1.50;;;;;;;;5473056;26;8844;-85
2024/04/08 03:01:32;;;;;;;;;2.00;2.00;;;;;;;;5482348;26;8797;-84
2024/04/08 03:03:58;;;;;;;;;4.00;2.25;;;;;;;;5462537;26;8836;-84
2024/04/08 03:06:29;;;;;;;;;3.00;3.00;;;;;;;;5454322;26;8892;-85
2024/04/08 03:08:58;;;;;;;;;3.25;3.25;;;;;;;;5449971;26;9631;-86
2024/04/08 03:11:27;;;;;;;;;2.00;1.00;;;;;;;;5483161;26;8848;-87
2024/04/08 03:13:53;;;;;;;;;2.00;2.00;;;;;;;;5458194;26;8848;-85
2024/04/08 03:16:22;;;;;;;;;2.50;2.50;;;;;;;;5461694;26;9601;-84
2024/04/08 03:18:50;;;;;;;;;2.00;2.00;;;;;;;;5458200;26;8994;-86
2024/04/08 03:21:19;;;;;;;;;1.50;1.50;;;;;;;;5482872;26;8843;-86
2024/04/08 03:23:45;;;;;;;;;2.00;2.00;;;;;;;;5457140;26;8848;-87
2024/04/08 03:26:17;;;;;;;;;1.00;1.00;;;;;;;;5484182;26;8824;-85
2024/04/08 03:28:43;;;;;;;;;2.00;2.00;;;;;;;;5454663;26;8852;-87
2024/04/08 03:31:13;;;;;;;;;2.00;2.00;;;;;;;;5466604;26;9755;-85
2024/04/08 03:33:39;;;;;;;;;1.25;1.25;;;;;;;;5478152;26;8824;-87
2024/04/08 03:36:11;;;;;;;;;3.00;3.00;;;;;;;;5470378;26;8832;-86
2024/04/08 03:38:40;;;;;;;;;4.25;4.00;;;;;;;;5476349;26;8832;-83
2024/04/08 03:41:10;;;;;;;;;2.50;2.50;;;;;;;;5451727;26;8824;-83
2024/04/08 03:43:41;;;;;;;;;4.25;3.50;;;;;;;;5489683;26;8891;-85
2024/04/08 03:46:10;;;;;;;;;4.00;4.00;;;;;;;;5463444;26;8874;-87
2024/04/08 03:48:37;;;;;;;;;5.75;3.25;;;;;;;;5474052;26;8816;-87
2024/04/08 03:51:13;;;;;;;;;5.75;4.50;;;;;;;;5452038;26;8840;-87
2024/04/08 03:53:42;;;;;;;;;3.00;3.00;;;;;;;;5431275;26;8823;-87
2024/04/08 03:56:13;;;;;;;;;3.75;3.75;;;;;;;;5472733;26;8959;-87
2024/04/08 03:58:45;;;;;;;;;4.00;4.00;;;;;;;;5469291;26;8866;-83
2024/04/08 04:01:17;;;;;;;;;6.25;6.25;;;;;;;;5454737;26;8780;-84
2024/04/08 04:03:46;;;;;;;;;4.50;4.00;;;;;;;;5485811;26;8836;-87
2024/04/08 04:06:12;;;;;;;;;3.75;3.75;;;;;;;;5462524;26;8981;-83
2024/04/08 04:08:41;;;;;;;;;4.00;3.00;;;;;;;;5488094;26;8928;-83
2024/04/08 04:11:08;;;;;;;;;5.50;4.00;;;;;;;;5484233;26;8836;-84
2024/04/08 04:13:37;;;;;;;;;5.50;5.50;;;;;;;;5489137;26;8929;-83
2024/04/08 04:16:06;;;;;;;;;7.00;7.00;;;;;;;;5478458;26;8832;-83
2024/04/08 04:18:35;;;;;;;;;7.25;6.75;;;;;;;;5473963;26;8871;-84
2024/04/08 04:21:04;;;;;;;;;6.50;5.50;;;;;;;;5448549;26;8816;-82
2024/04/08 04:23:36;;;;;;;;;6.00;5.00;;;;;;;;5451186;26;8832;-86
2024/04/08 04:26:02;;;;;;;;;5.00;4.50;;;;;;;;5452924;26;8820;-86
2024/04/08 04:28:32;;;;;;;;;6.50;5.00;;;;;;;;5451908;26;8903;-82
2024/04/08 04:31:01;;;;;;;;;5.25;5.25;;;;;;;;5451354;26;8784;-85
2024/04/08 04:33:35;;;;;;;;;5.00;5.00;;;;;;;;5463442;26;9620;-84
2024/04/08 04:36:03;;;;;;;;;7.75;7.75;;;;;;;;5451221;26;8847;-85
2024/04/08 04:38:32;;;;;;;;;6.25;6.25;;;;;;;;5461129;26;8913;-84
2024/04/08 04:41:02;;;;;;;;;9.25;8.00;;;;;;;;5451873;26;8828;-83
2024/04/08 04:43:40;;;;;;;;;6.75;6.75;;;;;;;;5454970;26;8848;-85
2024/04/08 04:46:06;;;;;;;;;9.75;8.75;;;;;;;;5454932;26;8820;-85
2024/04/08 04:48:44;;;;;;;;;9.00;7.50;;;;;;;;5460897;26;8847;-85
2024/04/08 04:51:10;;;;;;;;;7.00;7.00;;;;;;;;5441774;26;8836;-85
2024/04/08 04:53:39;;;;;;;;;8.50;6.00;;;;;;;;5462255;26;8932;-84
2024/04/08 04:56:06;;;;;;;;;6.33;6.33;;;;;;;;5462631;26;8878;-83
2024/04/08 04:58:35;;;;;;;;;6.00;6.00;;;;;;;;5450199;26;9067;-85
2024/04/08 05:01:04;;;;;;;;;7.50;4.50;;;;;;;;5461610;26;8807;-84
2024/04/08 05:03:38;;;;;;;;;4.00;4.00;;;;;;;;5451206;26;8839;-84
2024/04/08 05:06:05;;;;;;;;;3.50;2.50;;;;;;;;5455701;26;8832;-74
2024/04/08 05:08:40;;;;;;;;;3.00;3.00;;;;;;;;5443421;26;8824;-72
2024/04/08 05:11:06;;;;;;;;;4.75;4.75;;;;;;;;5448584;26;8820;-75
2024/04/08 05:13:35;;;;;;;;;3.50;3.00;;;;;;;;5448533;26;9737;-74
2024/04/08 05:16:03;;;;;;;;;2.75;2.75;;;;;;;;5468961;26;8824;-77
2024/04/08 05:18:33;;;;;;;;;3.50;3.50;;;;;;;;5451220;26;8828;-74
2024/04/08 05:21:02;;;;;;;;;5.50;5.50;;;;;;;;5447349;26;8851;-76
2024/04/08 05:23:31;;;;;;;;;6.25;5.00;;;;;;;;5448794;26;8844;-75
2024/04/08 05:26:01;;;;;;;;;3.50;3.50;;;;;;;;5480915;26;8866;-75
2024/04/08 05:28:35;;;;;;;;;4.50;4.00;;;;;;;;5480215;26;8844;-75
2024/04/08 05:31:02;;;;;;;;;5.00;5.00;;;;;;;;5428915;26;8771;-75
2024/04/08 05:33:31;;;;;;;;;7.75;6.00;;;;;;;;5472243;26;8832;-75
2024/04/08 05:36:03;;;;;;;;;6.50;5.50;;;;;;;;5482028;26;8840;-76
2024/04/08 05:38:32;;;;;;;;;6.75;5.25;;;;;;;;5473764;26;9538;-77
2024/04/08 05:41:02;;;;;;;;;5.00;5.00;;;;;;;;5449012;26;8824;-76
2024/04/08 05:43:34;;;;;;;;;5.50;4.00;;;;;;;;5454765;26;8797;-74
2024/04/08 05:46:00;;;;;;;;;6.00;5.50;;;;;;;;5482723;26;9668;-76
2024/04/08 05:48:29;;;;;;;;;5.00;5.00;;;;;;;;5457547;26;9569;-76
2024/04/08 05:50:55;;;;;;;;;5.50;5.50;;;;;;;;5457111;26;8859;-75
2024/04/08 05:53:28;;;;;;;;;5.00;4.25;;;;;;;;5449284;26;8805;-75
2024/04/08 05:55:54;;;;;;;;;5.00;5.00;;;;;;;;5448301;26;8878;-75
2024/04/08 05:58:23;;;;;;;;;2.50;2.50;;;;;;;;5447491;26;8863;-74
2024/04/08 06:00:49;;;;;;;;;6.50;5.50;;;;;;;;5449302;26;8740;-75
2024/04/08 06:03:18;;;;;;;;;5.75;5.75;;;;;;;;5454286;26;8848;-76
2024/04/08 06:05:45;;;;;;;;;6.50;6.50;;;;;;;;5448673;26;8836;-76
2024/04/08 06:08:15;;;;;;;;;8.75;8.75;;;;;;;;5452084;26;8824;-75
2024/04/08 06:10:50;;;;;;;;;6.50;6.50;;;;;;;;5451565;26;8840;-74
2024/04/08 06:13:19;;;;;;;;;9.00;9.00;;;;;;;;5429374;26;8863;-76
2024/04/08 06:15:45;;;;;;;;;13.25;9.00;;;;;;;;5452992;26;8836;-75
2024/04/08 06:18:15;;;;;;;;;12.75;10.50;;;;;;;;5448237;26;8906;-75
2024/04/08 06:20:43;;;;;;;;;10.75;9.75;;;;;;;;5450196;26;8838;-76
2024/04/08 06:23:12;;;;;;;;;7.00;7.00;;;;;;;;5447996;26;8843;-75
2024/04/08 06:25:38;;;;;;;;;6.00;6.00;;;;;;;;5453169;26;8860;-74
2024/04/08 06:28:10;;;;;;;;;8.25;7.00;;;;;;;;5482051;26;8858;-77
2024/04/08 06:30:36;;;;;;;;;8.50;8.00;;;;;;;;5478738;26;8808;-74
2024/04/08 06:33:05;;;;;;;;;11.75;11.25;;;;;;;;5481359;26;8847;-76
2024/04/08 06:35:34;;;;;;;;;9.25;9.25;;;;;;;;5448400;26;8816;-75
2024/04/08 06:38:06;;;;;;;;;9.75;9.75;;;;;;;;5468776;26;8854;-78
2024/04/08 06:40:34;;;;;;;;;11.50;9.00;;;;;;;;5456337;26;8825;-78
2024/04/08 06:43:01;;;;;;;;;8.00;8.00;;;;;;;;5456787;26;8836;-76
2024/04/08 06:45:32;;;;;;;;;11.25;11.25;;;;;;;;5468540;26;8844;-78
2024/04/08 06:48:06;;;;;;;;;11.50;11.50;;;;;;;;5469151;26;8856;-75
2024/04/08 06:50:35;;;;;;;;;12.75;12.75;;;;;;;;5447747;26;8836;-76
2024/04/08 06:53:01;;;;;;;;;16.75;14.50;;;;;;;;5468269;26;9643;-76
2024/04/08 06:55:39;;;;;;;;;15.50;14.25;;;;;;;;5448296;26;8844;-75
2024/04/08 06:58:09;;;;;;;;;14.25;13.75;;;;;;;;5446762;26;8858;-75
2024/04/08 07:00:43;;;;;;;;;7.75;7.75;;;;;;;;5446463;26;8713;-75
2024/04/08 07:03:09;;;;;;;;;15.00;13.75;;;;;;;;5468690;26;8828;-77
2024/04/08 07:05:38;;;;;;;;;18.50;16.75;;;;;;;;5450916;26;8835;-77
2024/04/08 07:08:07;;;;;;;;;16.25;13.75;;;;;;;;5480048;26;8844;-75
2024/04/08 07:10:37;;;;;;;;;12.25;12.00;;;;;;;;5476792;26;8892;-74
2024/04/08 07:13:04;;;;;;;;;11.50;11.00;;;;;;;;5481810;26;8824;-76
2024/04/08 07:15:36;;;;;;;;;10.00;10.00;;;;;;;;5478051;26;8836;-75
2024/04/08 07:18:08;;;;;;;;;13.75;13.75;;;;;;;;5466658;26;8832;-76
2024/04/08 07:20:34;;;;;;;;;10.75;10.75;;;;;;;;5470446;26;8812;-80
2024/04/08 07:23:06;;;;;;;;;10.00;10.00;;;;;;;;5465783;26;8862;-76
2024/04/08 07:25:32;;;;;;;;;10.75;9.00;;;;;;;;5445662;26;8801;-76
2024/04/08 07:28:06;;;;;;;;;7.75;7.00;;;;;;;;5465161;26;8836;-78
2024/04/08 07:30:34;;;;;;;;;8.25;8.25;;;;;;;;5458046;26;8753;-77
2024/04/08 07:33:09;;;;;;;;;10.00;8.50;;;;;;;;5483243;26;8828;-77
2024/04/08 07:35:37;;;;;;;;;8.25;8.25;;;;;;;;5481497;26;8817;-77
2024/04/08 07:38:07;;;;;;;;;12.25;10.50;;;;;;;;5482532;26;8850;-76
2024/04/08 07:40:33;;;;;;;;;9.00;9.00;;;;;;;;5438091;26;8843;-79
2024/04/08 07:43:02;;;;;;;;;9.25;8.50;;;;;;;;5458680;26;8848;-75
2024/04/08 07:45:28;;;;;;;;;5.50;5.50;;;;;;;;5471901;26;8792;-78
2024/04/08 07:48:00;;;;;;;;;9.25;9.25;;;;;;;;5472295;26;8870;-78
2024/04/08 07:50:29;;;;;;;;;10.25;10.25;;;;;;;;5468175;26;9633;-81
2024/04/08 07:52:58;;;;;;;;;7.00;7.00;;;;;;;;5471945;26;8868;-80
2024/04/08 07:55:26;;;;;;;;;8.50;8.50;;;;;;;;5450064;26;8854;-80
2024/04/08 07:57:55;;;;;;;;;7.25;5.00;;;;;;;;5449397;26;10080;-82
2024/04/08 08:00:21;;;;;;;;;10.00;9.00;;;;;;;;5447033;26;8863;-81
2024/04/08 08:02:50;;;;;;;;;10.00;9.00;;;;;;;;5445785;26;8831;-80
2024/04/08 08:05:16;;;;;;;;;9.25;7.50;;;;;;;;5446696;26;8828;-80
2024/04/08 08:07:47;;;;;;;;;6.50;6.50;;;;;;;;5445980;26;8942;-78
2024/04/08 08:10:17;;;;;;;;;7.50;7.50;;;;;;;;5446132;26;8872;-79
2024/04/08 08:12:48;;;;;;;;;6.00;6.00;;;;;;;;5445687;26;8903;-77
2024/04/08 08:15:18;;;;;;;;;4.00;4.00;;;;;;;;5447353;26;8844;-79
2024/04/08 08:17:49;;;;;;;;;5.00;5.00;;;;;;;;5448132;26;8910;-76
2024/04/08 08:20:19;;;;;;;;;6.50;4.75;;;;;;;;5451964;26;8824;-80
2024/04/08 08:22:56;;;;;;;;;4.00;2.50;;;;;;;;5451474;26;8836;-79
2024/04/08 08:25:23;;;;;;;;;3.00;3.00;;;;;;;;5436847;26;8917;-79
2024/04/08 08:27:52;;;;;;;;;4.75;4.25;;;;;;;;5470161;26;8878;-80
2024/04/08 08:30:21;;;;;;;;;5.25;3.75;;;;;;;;5449291;26;9276;-80
2024/04/08 08:32:50;;;;;;;;;4.00;3.00;;;;;;;;5449985;26;8828;-79
2024/04/08 08:35:19;;;;;;;;;3.00;3.00;;;;;;;;5451002;26;8984;-78
2024/04/08 08:37:47;;;;;;;;;4.00;4.00;;;;;;;;5466303;26;8864;-77
2024/04/08 08:40:16;;;;;;;;;3.75;3.75;;;;;;;;5457754;26;8805;-80
2024/04/08 08:42:47;;;;;;;;;0.00;0.00;;;;;;;;5464370;26;9614;-80
2024/04/08 08:45:13;;;;;;;;;1.50;1.50;;;;;;;;5449441;26;8847;-78
2024/04/08 08:47:42;;;;;;;;;3.00;3.00;;;;;;;;5468267;26;8835;-79
2024/04/08 08:50:12;;;;;;;;;4.75;4.75;;;;;;;;5470029;26;8971;-79
2024/04/08 08:52:41;;;;;;;;;4.00;3.75;;;;;;;;5449312;26;8875;-78
2024/04/08 08:55:10;;;;;;;;;3.75;3.75;;;;;;;;5469552;26;8819;-78
2024/04/08 08:57:39;;;;;;;;;2.50;2.50;;;;;;;;5447715;26;8836;-77
2024/04/08 09:00:07;;;;;;;;;3.75;3.75;;;;;;;;5460321;26;9653;-78
2024/04/08 09:02:37;;;;;;;;;4.50;4.25;;;;;;;;5429028;26;8895;-78
2024/04/08 09:05:04;;;;;;;;;27.75;27.50;;;;;;;;5438529;26;8886;-80
2024/04/08 09:07:43;;;;;;;;;20.00;19.75;;;;;;;;5446715;26;8873;-79
2024/04/08 09:10:12;;;;;;;;;6.00;6.00;;;;;;;;5451555;26;8851;-78
2024/04/08 09:12:45;;;;;;;;;45.50;39.00;;;;;;;;5456011;26;8863;-77
2024/04/08 09:15:12;;;;;;;;;12.00;12.00;;;;;;;;5456771;26;9455;-76
2024/04/08 09:17:41;;;;;;;;;4.75;4.75;;;;;;;;5453393;26;9624;-76
2024/04/08 09:20:11;;;;;;;;;4.50;4.50;;;;;;;;5457568;26;8848;-75
2024/04/08 09:22:40;;;;;;;;;4.75;4.00;;;;;;;;5454087;26;8805;-76
2024/04/08 09:25:14;;;;;;;;;4.75;4.75;;;;;;;;5450745;26;9398;-77
2024/04/08 09:27:43;;;;;;;;;4.75;4.75;;;;;;;;5440555;26;8828;-75
2024/04/08 09:30:11;;;;;;;;;3.25;2.25;;;;;;;;5446469;26;8828;-76
2024/04/08 09:32:40;;;;;;;;;4.00;4.00;;;;;;;;5448662;26;8856;-76
2024/04/08 09:35:07;;;;;;;;;0.75;0.75;;;;;;;;5470572;26;8850;-75
2024/04/08 09:37:37;;;;;;;;;0.50;0.50;;;;;;;;5458942;26;8836;-75
2024/04/08 09:40:05;;;;;;;;;1.50;1.50;;;;;;;;5456149;26;8829;-76
2024/04/08 09:42:40;;;;;;;;;1.00;1.00;;;;;;;;5448681;26;8936;-78
2024/04/08 09:45:06;;;;;;;;;1.00;1.00;;;;;;;;5441683;26;9582;-76
2024/04/08 09:47:39;;;;;;;;;0.50;0.50;;;;;;;;5446794;26;8863;-76
2024/04/08 09:50:06;;;;;;;;;1.00;1.00;;;;;;;;5451664;26;8902;-76
2024/04/08 09:52:35;;;;;;;;;1.00;1.00;;;;;;;;5449567;26;8914;-76
2024/04/08 09:55:02;;;;;;;;;1.75;1.75;;;;;;;;5449361;26;9672;-77
2024/04/08 09:57:40;;;;;;;;;1.00;1.00;;;;;;;;5460556;26;8843;-73
2024/04/08 10:00:12;;;;;;;;;1.00;1.00;;;;;;;;5438011;26;8828;-73
2024/04/08 10:02:42;;;;;;;;;1.00;1.00;;;;;;;;5458914;26;8915;-75
2024/04/08 10:05:08;;;;;;;;;0.75;0.75;;;;;;;;5459451;26;9748;-78
2024/04/08 10:07:38;;;;;;;;;1.75;1.75;;;;;;;;5448880;26;8851;-75
2024/04/08 10:10:05;;;;;;;;;2.75;0.75;;;;;;;;5457770;26;8860;-80
2024/04/08 10:12:42;;;;;;;;;1.00;1.00;;;;;;;;5448150;26;8820;-74
2024/04/08 10:15:09;;;;;;;;;1.25;1.25;;;;;;;;5458926;26;8867;-78
2024/04/08 10:17:38;;;;;;;;;0.75;0.75;;;;;;;;5447553;26;8808;-79
2024/04/08 10:20:06;;;;;;;;;0.75;0.75;;;;;;;;5467988;26;8964;-77
2024/04/08 10:22:37;;;;;;;;;0.00;0.00;;;;;;;;5462126;26;8864;-76
2024/04/08 10:25:04;;;;;;;;;1.00;1.00;;;;;;;;5431086;26;8848;-78
2024/04/08 10:27:42;;;;;;;;;0.50;0.50;;;;;;;;5453377;26;8848;-80
2024/04/08 10:30:15;;;;;;;;;0.75;0.75;;;;;;;;5451709;26;8848;-75
2024/04/08 10:32:43;;;;;;;;;1.25;1.25;;;;;;;;5451768;26;8885;-78
2024/04/08 10:35:10;;;;;;;;;1.00;1.00;;;;;;;;5448364;26;8876;-81
2024/04/08 10:37:39;;;;;;;;;4.75;4.75;;;;;;;;5448615;26;8832;-78
2024/04/08 10:40:06;;;;;;;;;3.75;2.50;;;;;;;;5447302;26;8809;-82
2024/04/08 10:42:35;;;;;;;;;3.75;3.75;;;;;;;;5431214;26;9577;-77
2024/04/08 10:45:07;;;;;;;;;3.00;2.50;;;;;;;;5457059;26;8820;-78
2024/04/08 10:47:36;;;;;;;;;3.00;3.00;;;;;;;;5453124;26;8866;-78
2024/04/08 10:50:03;;;;;;;;;2.50;2.50;;;;;;;;5452119;26;8824;-77
2024/04/08 10:52:35;;;;;;;;;0.00;0.00;;;;;;;;5453378;26;8847;-77
2024/04/08 10:55:05;;;;;;;;;1.20;1.20;;;;;;;;5447791;26;8836;-74
2024/04/08 10:57:37;;;;;;;;;1.25;1.25;;;;;;;;5452865;26;8950;-75
2024/04/08 11:00:07;;;;;;;;;2.00;2.00;;;;;;;;5452178;26;8823;-79
2024/04/08 11:02:36;;;;;;;;;3.80;1.20;;;;;;;;5452358;26;8769;-74
2024/04/08 11:05:03;;;;;;;;;1.00;1.00;;;;;;;;5448866;26;8831;-77
2024/04/08 11:07:37;;;;;;;;;7.75;4.50;;;;;;;;5451195;26;8878;-73
2024/04/08 11:10:05;;;;;;;;;4.50;4.50;;;;;;;;5449993;26;8805;-75
2024/04/08 11:12:37;;;;;;;;;5.00;5.00;;;;;;;;5451635;26;8847;-74
2024/04/08 11:15:09;;;;;;;;;3.00;2.40;;;;;;;;5434613;26;8816;-73
2024/04/08 11:17:38;;;;;;;;;2.00;2.00;;;;;;;;5448181;26;8863;-77
2024/04/08 11:20:06;;;;;;;;;3.60;3.60;;;;;;;;5447794;26;8844;-77
2024/04/08 11:22:36;;;;;;;;;2.20;1.40;;;;;;;;5446838;26;8844;-75
2024/04/08 11:25:03;;;;;;;;;4.20;3.00;;;;;;;;5448867;26;8852;-75
2024/04/08 11:27:38;;;;;;;;;3.00;3.00;;;;;;;;5469150;26;8836;-74
2024/04/08 11:30:16;;;;;;;;;3.80;3.20;;;;;;;;5446194;25;8820;-78
2024/04/08 11:32:42;;;;;;;;;5.60;3.80;;;;;;;;5426717;26;8888;-76
2024/04/08 11:35:11;;;;;;;;;0.80;0.80;;;;;;;;5444544;26;8848;-76
2024/04/08 11:37:37;;;;;;;;;2.60;2.60;;;;;;;;5460930;26;8919;-76
2024/04/08 11:40:08;;;;;;;;;5.20;3.80;;;;;;;;5474736;26;8836;-74
2024/04/08 11:42:34;;;;;;;;;4.60;3.20;;;;;;;;5462702;26;8847;-78
2024/04/08 11:45:08;;;;;;;;;2.80;2.80;;;;;;;;5453998;26;8844;-74
2024/04/08 11:47:37;;;;;;;;;3.00;3.00;;;;;;;;5466873;26;8860;-75
2024/04/08 11:50:07;;;;;;;;;4.60;4.00;;;;;;;;5457489;26;8928;-75
2024/04/08 11:52:33;;;;;;;;;2.60;2.60;;;;;;;;5483655;26;8840;-76
2024/04/08 11:55:03;;;;;;;;;2.60;2.60;;;;;;;;5453474;26;8948;-76
2024/04/08 11:57:29;;;;;;;;;4.60;3.60;;;;;;;;5450846;26;8864;-76
2024/04/08 11:59:58;;;;;;;;;3.20;2.00;;;;;;;;5450024;26;9020;-79
2024/04/08 12:02:24;;;;;;;;;6.40;6.40;;;;;;;;5414849;26;8789;-80
2024/04/08 12:04:56;;;;;;;;;3.00;2.80;;;;;;;;5410579;26;8887;-80
2024/04/08 12:07:22;;;;;;;;;2.40;2.40;;;;;;;;5404852;26;8868;-77
2024/04/08 12:09:51;;;;;;;;;2.60;2.60;;;;;;;;5413686;26;8832;-78
2024/04/08 12:12:17;;;;;;;;;2.40;1.60;;;;;;;;5403319;26;9711;-79
2024/04/08 12:14:50;;;;;;;;;2.40;2.40;;;;;;;;5409930;26;8838;-78
2024/04/08 12:17:21;;;;;;;;;2.80;2.20;;;;;;;;5415097;26;8836;-80
2024/04/08 12:19:53;;;;;;;;;5.00;2.00;;;;;;;;5406734;26;8916;-79
2024/04/08 12:22:22;;;;;;;;;3.00;3.00;;;;;;;;5413619;26;8862;-80
2024/04/08 12:24:51;;;;;;;;;3.00;2.60;;;;;;;;5413953;26;8875;-78
2024/04/08 12:27:17;;;;;;;;;2.80;2.80;;;;;;;;5414196;26;8851;-78
2024/04/08 12:29:46;;;;;;;;;3.00;3.00;;;;;;;;5412239;26;8836;-79
2024/04/08 12:32:12;;;;;;;;;3.20;2.40;;;;;;;;5393191;26;8789;-79
2024/04/08 12:34:41;;;;;;;;;1.80;1.80;;;;;;;;5415548;26;8798;-79
2024/04/08 12:37:08;;;;;;;;;2.00;2.00;;;;;;;;5392265;26;8859;-79
2024/04/08 12:39:41;;;;;;;;;1.80;1.80;;;;;;;;5394209;26;9680;-76
2024/04/08 12:42:07;;;;;;;;;2.20;2.20;;;;;;;;5413532;26;9005;-81
2024/04/08 12:44:36;;;;;;;;;3.00;2.00;;;;;;;;5414800;26;8874;-77
2024/04/08 12:47:02;;;;;;;;;2.80;2.00;;;;;;;;5425465;26;8850;-75
2024/04/08 12:49:34;;;;;;;;;2.80;2.80;;;;;;;;5426335;26;8840;-77
2024/04/08 12:52:00;;;;;;;;;2.00;1.20;;;;;;;;5403836;26;8957;-74
2024/04/08 12:54:29;;;;;;;;;2.80;2.80;;;;;;;;5405636;26;8832;-76
2024/04/08 12:56:58;;;;;;;;;1.80;1.80;;;;;;;;5395586;26;8898;-77
2024/04/08 12:59:29;;;;;;;;;2.60;2.40;;;;;;;;5403866;26;8860;-76
2024/04/08 13:01:56;;;;;;;;;6.40;3.80;;;;;;;;5455778;26;8760;-79
2024/04/08 13:04:24;;;;;;;;;2.20;2.20;;;;;;;;5464993;26;9628;-78
2024/04/08 13:06:51;;;;;;;;;2.40;0.60;;;;;;;;5455135;26;8843;-79
2024/04/08 13:09:20;;;;;;;;;2.40;2.40;;;;;;;;5451233;26;8840;-79
2024/04/08 13:11:46;;;;;;;;;4.40;2.80;;;;;;;;5463414;26;8870;-79
2024/04/08 13:14:17;;;;;;;;;3.20;2.60;;;;;;;;5466661;26;8808;-77
2024/04/08 13:16:43;;;;;;;;;3.00;2.80;;;;;;;;5455801;26;8839;-78
2024/04/08 13:19:12;;;;;;;;;3.20;2.40;;;;;;;;5466932;26;8847;-79
2024/04/08 13:21:38;;;;;;;;;3.40;3.20;;;;;;;;5460136;26;8824;-78
2024/04/08 13:24:08;;;;;;;;;2.00;2.00;;;;;;;;5450889;26;8828;-76
2024/04/08 13:26:36;;;;;;;;;3.40;2.80;;;;;;;;5454726;26;8866;-77
2024/04/08 13:29:05;;;;;;;;;4.20;2.00;;;;;;;;5480288;26;8824;-78
2024/04/08 13:31:35;;;;;;;;;1.60;1.60;;;;;;;;5437946;26;8874;-78
2024/04/08 13:34:04;;;;;;;;;6.60;4.80;;;;;;;;5420489;26;8919;-75
2024/04/08 13:36:34;;;;;;;;;3.60;2.80;;;;;;;;5444131;26;8840;-78
2024/04/08 13:39:06;;;;;;;;;1.00;1.00;;;;;;;;5412715;26;8856;-79
2024/04/08 13:41:32;;;;;;;;;5.80;3.40;;;;;;;;5433682;26;8896;-79
2024/04/08 13:44:01;;;;;;;;;4.00;4.00;;;;;;;;5414083;26;8836;-75
2024/04/08 13:46:33;;;;;;;;;4.00;3.00;;;;;;;;5434795;26;8875;-77
2024/04/08 13:49:05;;;;;;;;;2.00;2.00;;;;;;;;5419000;26;8860;-77
2024/04/08 13:51:34;;;;;;;;;3.40;3.00;;;;;;;;5415157;26;8836;-75
2024/04/08 13:54:04;;;;;;;;;3.80;3.00;;;;;;;;5430427;26;8804;-76
2024/04/08 13:56:33;;;;;;;;;5.60;3.80;;;;;;;;5414843;26;8922;-76
2024/04/08 13:59:05;;;;;;;;;5.20;2.60;;;;;;;;5432387;26;8887;-75
2024/04/08 14:01:34;;;;;;;;;3.80;3.80;;;;;;;;5415637;26;8807;-77
2024/04/08 14:04:06;;;;;;;;;2.60;2.60;;;;;;;;5421733;26;8852;-76
2024/04/08 14:06:32;;;;;;;;;5.20;3.60;;;;;;;;5419225;26;8848;-76
2024/04/08 14:09:03;;;;;;;;;4.80;2.80;;;;;;;;5420706;26;8929;-76
2024/04/08 14:11:29;;;;;;;;;3.20;3.20;;;;;;;;5435406;26;8859;-77
2024/04/08 14:13:58;;;;;;;;;3.80;3.20;;;;;;;;5433458;26;8884;-76
2024/04/08 14:16:25;;;;;;;;;5.80;4.00;;;;;;;;5420077;26;8910;-77
2024/04/08 14:18:54;;;;;;;;;5.00;3.80;;;;;;;;5417574;26;9458;-78
2024/04/08 14:21:23;;;;;;;;;3.40;2.20;;;;;;;;5421679;26;8876;-77
2024/04/08 14:23:52;;;;;;;;;3.20;3.20;;;;;;;;5419137;26;8879;-76
2024/04/08 14:26:19;;;;;;;;;4.40;1.80;;;;;;;;5446010;26;8836;-77
2024/04/08 14:28:48;;;;;;;;;6.80;4.20;;;;;;;;5420252;26;8848;-76
2024/04/08 14:31:14;;;;;;;;;4.20;4.20;;;;;;;;5445977;26;8793;-76
2024/04/08 14:33:46;;;;;;;;;6.20;3.80;;;;;;;;5440487;26;8895;-74
2024/04/08 14:36:12;;;;;;;;;6.60;5.00;;;;;;;;5429740;26;8844;-76
2024/04/08 14:38:44;;;;;;;;;1.20;1.20;;;;;;;;5438861;26;8837;-76
2024/04/08 14:41:10;;;;;;;;;1.60;1.60;;;;;;;;5427855;26;8848;-76
2024/04/08 14:43:39;;;;;;;;;4.40;3.20;;;;;;;;5436152;26;8969;-76
2024/04/08 14:46:05;;;;;;;;;6.40;4.40;;;;;;;;5433339;26;9643;-76
2024/04/08 14:48:39;;;;;;;;;10.40;4.80;;;;;;;;5441473;26;8918;-76
2024/04/08 14:51:05;;;;;;;;;5.00;3.00;;;;;;;;5445034;26;8840;-77
2024/04/08 14:53:37;;;;;;;;;5.40;3.80;;;;;;;;5443778;26;9655;-75
2024/04/08 14:56:06;;;;;;;;;3.40;3.40;;;;;;;;5421924;26;8848;-76
2024/04/08 14:58:36;;;;;;;;;6.20;5.40;;;;;;;;5433426;26;8843;-80
2024/04/08 15:01:07;;;;;;;;;6.00;2.60;;;;;;;;5432997;26;8752;-77
2024/04/08 15:03:39;;;;;;;;;9.20;5.00;;;;;;;;5427232;26;8863;-78
2024/04/08 15:06:05;;;;;;;;;7.00;4.40;;;;;;;;5419559;26;8872;-78